Detall de PIREP

Printer-friendly versionPDF version

[2012/05/10 16:22:00]
Flight IATA:CT3101
Pilot Number:042
Company ICAO:CAT
Aircraft Type:B738/F
PAX:100
Departing Airport: LEBL
Destination Airport: LIEA
Alternate Airport:LIEO
Online: VATSIM
Route:VERSO UL16 MHN UM603 ELSAG
Flight Level:F340
No Slew and time accel
No pause
Crash detect
Detect pilot in Cockpit between each 30 and 45 minutes
16:22 Zero fuel Weight: 118700 Lbs, Fuel Weight: 46056 Lbs
16:22 VATSIM:LEBL 101600Z 18007KT CAVOK 22/12 Q1023 NOSIG
16:22 VATSIM:LIEA 101550Z 03011KT 350V050 CAVOK 24/05 Q1024
16:22 VOICE CATALONIAN
16:47 Parking Brakes off
17:01 Take-off
17:01 Take off Weight: 163494 Lbs
17:01 Wind: 181º @ 006 Knots Heading: 244º
17:01 POS N41º 16´ 57´´ E002º 04´ 28´´
17:01 Gear Up: 175 Knots
17:01 Flaps:5 at 175 Knots
17:01 Flaps:4 at 181 Knots
17:02 Flaps:3 at 188 Knots
17:02 Flaps:2 at 202 Knots
17:02 Flaps:1 at 224 Knots
17:03 Flaps:0 at 238 Knots
17:16 Wind:161º@029 Knots Heading: 079º Ground Speed: 453 Knots Altitude 27007 ft
17:22 TOC
17:22 Fuel Weight: 40496 Lb
17:31 Wind:110º@032 Knots Heading: 077º Ground Speed: 434 Knots Altitude 34317 ft
17:39 TOD
17:39 Fuel Weight: 38752 Lb
17:46 Wind:064º@013 Knots Heading: 074º Ground Speed: 375 Knots Altitude 22076 ft
17:57 Flaps:1 at 216 Knots
17:58 Flaps:2 at 214 Knots
17:58 Flaps:3 at 212 Knots
18:01 Wind:031º@010 Knots Heading: 058º Ground Speed: 168 Knots Altitude 2303 ft
18:02 Flaps:4 at 171 Knots
18:02 Flaps:8 at 162 Knots
18:02 Gear Down: 161 Knots
18:05 TouchDown:Rate -611 ft/min Speed: 133 Knots
18:06 VATSIM:LIEA 101720Z 03010KT CAVOK 21/07 Q1024
18:06 Land
18:06 Wind:030º@010 Knots
18:06 Heading: 017º
18:06 Flight Duration: 01:05
18:06 Landing Weight: 156103 Lbs
18:06 POS N40º 37´ 52´´ E008º 17´ 26´´
18:08 Parking brakes on
18:08 Block to Block Duration: 01:21
18:08 Final Fuel: 37178 Lbls
18:08 Spent Fuel: 8877 Lbls
18:08 Flight Length: 386 NM
18:08 TOD Land Length: 128 NM

Exportar CSV

Powered by Drupal - Modified by Danger4k